Time;durP1;ratioP1;P1;durP2;ratioP2;P2;SDS_P1;SDS_P2;PMS_P1;PMS_P2;Temp;Humidity;BMP_temperature;BMP_pressure;BME280_temperature;BME280_humidity;BME280_pressure;Samples;Min_cycle;Max_cycle;Signal;HPM_P1;HPM_P2
2022/01/28 00:00:13;;;;;;;14.73;2.00;;;5.10;1.00;;;;;;5054129;28;20263;-60
2022/01/28 00:03:00;;;;;;;9.60;2.40;;;5.10;1.00;;;;;;5053511;28;20227;-61
2022/01/28 00:05:27;;;;;;;7.33;1.87;;;5.10;1.00;;;;;;5053752;28;20714;-60
2022/01/28 00:07:55;;;;;;;10.93;1.87;;;5.10;1.00;;;;;;5053749;28;20209;-60
2022/01/28 00:10:25;;;;;;;11.13;1.80;;;5.10;1.00;;;;;;5053915;28;20733;-58
2022/01/28 00:15:43;;;;;;;7.07;1.63;;;5.10;1.00;;;;;;5053791;28;20208;-60
2022/01/28 00:37:48;;;;;;;8.60;1.87;;;5.10;1.00;;;;;;5053176;28;20209;-57
2022/01/28 00:40:13;;;;;;;10.37;1.87;;;5.00;1.00;;;;;;5052793;28;20201;-57
2022/01/28 00:42:40;;;;;;;11.03;2.17;;;5.00;1.00;;;;;;5053242;28;20229;-59
2022/01/28 00:45:08;;;;;;;9.93;2.00;;;4.90;1.00;;;;;;5053206;28;20212;-56
2022/01/28 00:47:34;;;;;;;11.90;1.87;;;4.90;1.00;;;;;;5052925;28;20219;-58
2022/01/28 00:50:03;;;;;;;9.57;1.90;;;4.90;1.00;;;;;;5053095;28;20255;-56
2022/01/28 00:52:29;;;;;;;12.63;2.27;;;4.90;1.00;;;;;;5054559;28;20223;-57
2022/01/28 00:54:56;;;;;;;7.63;1.87;;;4.90;1.00;;;;;;5053817;28;20211;-55
2022/01/28 00:57:23;;;;;;;8.07;1.97;;;4.80;1.00;;;;;;5052554;28;20212;-56
2022/01/28 00:59:49;;;;;;;12.57;2.00;;;4.80;1.00;;;;;;5052639;28;20208;-52
2022/01/28 01:02:16;;;;;;;7.90;1.60;;;4.80;1.00;;;;;;5052965;28;20232;-55
2022/01/28 01:04:43;;;;;;;11.87;2.17;;;4.70;1.00;;;;;;5053104;28;20209;-56
2022/01/28 01:07:11;;;;;;;10.97;1.80;;;4.70;1.00;;;;;;5052528;28;20210;-58
2022/01/28 01:09:37;;;;;;;13.70;2.30;;;4.60;1.00;;;;;;5052605;28;20213;-56
2022/01/28 01:12:05;;;;;;;7.90;1.73;;;4.60;2.80;;;;;;5052690;28;20223;-60
2022/01/28 01:14:32;;;;;;;9.33;1.97;;;4.50;2.70;;;;;;5052726;28;20208;-59
2022/01/28 01:17:09;;;;;;;11.00;2.17;;;4.60;3.40;;;;;;5052585;28;20624;-60
2022/01/28 01:19:40;;;;;;;10.03;2.00;;;4.60;1.40;;;;;;5052873;28;20215;-59
2022/01/28 01:22:09;;;;;;;12.33;2.17;;;4.60;1.00;;;;;;5053092;28;20233;-61
2022/01/28 01:24:47;;;;;;;9.43;2.00;;;4.60;1.00;;;;;;5052750;28;20251;-57
2022/01/28 01:27:14;;;;;;;9.40;1.90;;;4.60;1.00;;;;;;5052866;28;20212;-62
2022/01/28 01:29:43;;;;;;;13.00;2.53;;;4.50;1.00;;;;;;5052418;28;20208;-59
2022/01/28 01:32:14;;;;;;;10.67;1.80;;;4.50;4.20;;;;;;5053138;28;20314;-61
2022/01/28 01:34:40;;;;;;;12.77;2.33;;;4.50;4.10;;;;;;5053690;28;20205;-58
2022/01/28 01:37:08;;;;;;;7.83;1.80;;;4.60;2.50;;;;;;5055537;28;20259;-58
2022/01/28 01:39:36;;;;;;;14.43;2.23;;;4.60;2.80;;;;;;5054630;28;20209;-60
2022/01/28 01:42:12;;;;;;;11.87;2.50;;;4.60;1.00;;;;;;5052010;28;20231;-59
2022/01/28 01:45:10;;;;;;;10.43;2.43;;;4.60;1.00;;;;;;5051836;28;20275;-59
2022/01/28 01:52:56;;;;;;;8.13;1.57;;;4.50;1.00;;;;;;5052248;28;20221;-61
2022/01/28 01:55:23;;;;;;;11.77;1.90;;;4.50;1.00;;;;;;5051924;28;20242;-58
2022/01/28 01:57:52;;;;;;;8.73;1.70;;;4.50;1.00;;;;;;5052055;28;20214;-59
2022/01/28 02:00:19;;;;;;;13.60;1.97;;;4.50;1.00;;;;;;5051771;28;20207;-58
2022/01/28 02:02:45;;;;;;;12.40;1.93;;;4.40;1.00;;;;;;5051754;28;20226;-59
2022/01/28 02:05:12;;;;;;;9.40;2.03;;;4.40;1.00;;;;;;5051778;28;20641;-60
2022/01/28 02:07:40;;;;;;;9.43;1.80;;;4.40;1.00;;;;;;5051490;28;20210;-59
2022/01/28 02:10:07;;;;;;;8.73;3.03;;;4.40;1.00;;;;;;5051937;28;20261;-59
2022/01/28 02:12:45;;;;;;;5.67;2.20;;;4.40;1.00;;;;;;5051826;28;20229;-59
2022/01/28 02:15:13;;;;;;;9.97;1.87;;;4.40;1.00;;;;;;5051988;28;20209;-58
2022/01/28 02:17:40;;;;;;;12.97;1.63;;;4.30;1.00;;;;;;5051414;28;20269;-58
2022/01/28 02:20:09;;;;;;;10.03;2.20;;;4.30;1.00;;;;;;5051822;28;20208;-60
2022/01/28 02:22:37;;;;;;;16.40;2.30;;;4.40;1.00;;;;;;5051467;28;20326;-60
2022/01/28 02:25:05;;;;;;;6.80;1.90;;;4.30;1.00;;;;;;5051772;28;20212;-56
2022/01/28 02:27:31;;;;;;;11.37;2.40;;;4.40;1.00;;;;;;5051030;28;20209;-55
2022/01/28 02:29:58;;;;;;;7.77;1.80;;;4.40;1.00;;;;;;5051614;28;20234;-54
2022/01/28 02:32:25;;;;;;;13.70;2.83;;;4.50;1.00;;;;;;5051134;28;20298;-61
2022/01/28 02:34:51;;;;;;;9.53;1.77;;;4.50;1.00;;;;;;5051163;28;20204;-57
2022/01/28 02:37:18;;;;;;;9.73;1.93;;;4.50;1.00;;;;;;5051278;28;20705;-57
2022/01/28 02:39:47;;;;;;;12.27;2.20;;;4.60;1.00;;;;;;5051476;28;20215;-61
2022/01/28 02:42:19;;;;;;;9.00;1.97;;;4.60;1.00;;;;;;5051292;28;20235;-58
2022/01/28 02:44:49;;;;;;;3.50;1.20;;;4.60;1.00;;;;;;5051237;28;20212;-53
2022/01/28 02:47:28;;;;;;;18.27;2.53;;;4.60;1.00;;;;;;5050989;28;20265;-57
2022/01/28 02:49:54;;;;;;;9.43;1.93;;;4.60;1.00;;;;;;5051287;28;20213;-56
2022/01/28 02:52:30;;;;;;;14.97;1.80;;;4.60;1.00;;;;;;5051332;28;20228;-59
2022/01/28 02:55:00;;;;;;;10.00;2.83;;;4.60;1.00;;;;;;5051073;28;20728;-58
2022/01/28 02:57:27;;;;;;;11.40;2.20;;;4.60;1.00;;;;;;5051168;28;20204;-56
2022/01/28 02:59:54;;;;;;;5.83;1.67;;;4.60;1.00;;;;;;5055108;28;20258;-58
2022/01/28 03:02:21;;;;;;;12.13;2.37;;;4.60;1.00;;;;;;5054784;28;20337;-52
2022/01/28 03:05:07;;;;;;;9.47;2.13;;;4.60;1.00;;;;;;5055037;28;20667;-58
2022/01/28 03:07:33;;;;;;;6.93;2.17;;;4.60;1.00;;;;;;5054538;28;20207;-56
2022/01/28 03:10:27;;;;;;;11.67;1.83;;;4.50;1.00;;;;;;5054928;28;20210;-54
2022/01/28 03:13:14;;;;;;;11.40;2.10;;;4.50;1.00;;;;;;5054762;28;20224;-55
2022/01/28 03:15:42;;;;;;;8.67;1.70;;;4.50;1.00;;;;;;5054689;28;20211;-57
2022/01/28 03:18:12;;;;;;;14.40;1.80;;;4.50;1.00;;;;;;5054382;28;20298;-58
2022/01/28 03:20:42;;;;;;;9.43;2.00;;;4.50;1.00;;;;;;5054392;28;20261;-52
2022/01/28 03:23:10;;;;;;;15.90;2.60;;;4.50;1.00;;;;;;5054499;28;20705;-53
2022/01/28 03:25:43;;;;;;;8.50;2.13;;;4.50;1.00;;;;;;5054649;28;20239;-54
2022/01/28 03:28:09;;;;;;;9.87;2.00;;;4.40;1.00;;;;;;5054506;28;20204;-56
2022/01/28 03:30:36;;;;;;;14.27;2.57;;;4.30;1.00;;;;;;5054483;28;20216;-58
2022/01/28 03:33:03;;;;;;;9.57;1.80;;;4.30;1.00;;;;;;5054329;28;20202;-55
2022/01/28 03:35:31;;;;;;;11.60;1.90;;;4.40;1.00;;;;;;5054524;28;20620;-52
2022/01/28 03:38:00;;;;;;;13.67;1.53;;;4.40;1.00;;;;;;5054123;28;20211;-59
2022/01/28 03:40:27;;;;;;;9.70;1.93;;;4.40;1.00;;;;;;5054333;28;20296;-57
2022/01/28 03:42:56;;;;;;;9.33;1.80;;;4.40;1.00;;;;;;5054129;28;20714;-57
2022/01/28 03:45:22;;;;;;;7.37;1.73;;;4.40;1.00;;;;;;5054083;28;20208;-58
2022/01/28 03:47:49;;;;;;;11.97;1.73;;;4.40;1.00;;;;;;5054070;28;20567;-58
2022/01/28 03:50:16;;;;;;;13.30;1.97;;;4.40;1.00;;;;;;5054105;28;20628;-59
2022/01/28 03:52:42;;;;;;;15.77;3.53;;;4.30;1.00;;;;;;5053749;28;21003;-58
2022/01/28 03:55:10;;;;;;;12.13;2.50;;;4.30;1.00;;;;;;5054092;28;20627;-57
2022/01/28 03:57:36;;;;;;;14.37;2.63;;;4.30;1.00;;;;;;5053960;28;20265;-58
2022/01/28 04:00:06;;;;;;;14.47;1.97;;;4.30;1.00;;;;;;5053990;28;20591;-58
2022/01/28 04:02:37;;;;;;;13.27;1.93;;;4.30;1.00;;;;;;5054566;28;20230;-59
2022/01/28 04:13:21;;;;;;;12.90;2.33;;;4.30;1.00;;;;;;5054137;28;20198;-56
2022/01/28 04:16:04;;;;;;;8.90;1.77;;;4.30;1.00;;;;;;5053633;28;20211;-52
2022/01/28 04:18:30;;;;;;;11.00;1.90;;;4.30;1.00;;;;;;5054303;28;20206;-53
2022/01/28 04:20:57;;;;;;;11.93;1.90;;;4.30;1.00;;;;;;5053846;28;20226;-60
2022/01/28 04:23:24;;;;;;;11.97;2.10;;;4.30;1.00;;;;;;5053616;28;20282;-55
2022/01/28 04:25:50;;;;;;;14.20;2.30;;;4.30;1.00;;;;;;5053506;28;20215;-58
2022/01/28 04:28:17;;;;;;;12.90;2.83;;;4.30;1.00;;;;;;5053401;28;20256;-58
2022/01/28 04:30:44;;;;;;;9.00;1.60;;;4.30;1.00;;;;;;5053355;28;20207;-59
2022/01/28 04:33:12;;;;;;;15.40;2.17;;;4.30;1.00;;;;;;5053343;28;20608;-59
2022/01/28 04:35:38;;;;;;;10.33;2.20;;;4.30;1.00;;;;;;5053193;28;20211;-59
2022/01/28 04:38:17;;;;;;;13.87;1.93;;;4.40;1.00;;;;;;5052917;28;20222;-59
2022/01/28 04:40:54;;;;;;;15.37;2.30;;;4.30;1.00;;;;;;5053151;28;20219;-59
2022/01/28 04:43:26;;;;;;;18.93;2.40;;;4.30;1.00;;;;;;5053220;28;20250;-59
2022/01/28 04:46:01;;;;;;;12.57;2.17;;;4.30;1.00;;;;;;5053174;28;20207;-59
2022/01/28 04:48:36;;;;;;;10.33;2.30;;;4.40;1.00;;;;;;5053572;28;20216;-59
2022/01/28 04:51:14;;;;;;;8.33;2.17;;;4.40;1.00;;;;;;5053336;28;20228;-58
2022/01/28 04:53:55;;;;;;;17.60;4.20;;;4.40;1.00;;;;;;5054034;28;20222;-58
2022/01/28 04:56:38;;;;;;;15.33;3.47;;;4.30;1.00;;;;;;5054907;28;20243;-59
2022/01/28 04:59:24;;;;;;;11.63;2.73;;;4.30;1.00;;;;;;5054973;28;20677;-56
2022/01/28 05:04:51;;;;;;;7.33;1.80;;;4.30;1.00;;;;;;5053608;28;20332;-56
2022/01/28 05:13:30;;;;;;;11.60;2.87;;;4.30;1.00;;;;;;5026717;28;20214;-58
2022/01/28 05:26:57;;;;;;;8.13;1.87;;;4.20;1.00;;;;;;5049178;28;20567;-56
2022/01/28 05:29:24;;;;;;;10.53;2.20;;;4.20;1.00;;;;;;5052439;28;20267;-58
2022/01/28 05:31:51;;;;;;;11.47;2.03;;;4.20;1.00;;;;;;5051610;28;20227;-57
2022/01/28 05:34:18;;;;;;;11.13;2.20;;;4.30;1.00;;;;;;5052352;28;20230;-58
2022/01/28 05:36:46;;;;;;;8.27;1.53;;;4.20;1.00;;;;;;5051930;28;20206;-56
2022/01/28 05:39:32;;;;;;;11.77;2.00;;;4.30;1.00;;;;;;5052594;28;20247;-59
2022/01/28 05:41:59;;;;;;;7.80;1.87;;;4.20;1.00;;;;;;5052012;28;20226;-58
2022/01/28 05:44:27;;;;;;;11.57;2.30;;;4.20;1.00;;;;;;5052014;28;20270;-68
2022/01/28 05:46:56;;;;;;;8.50;2.03;;;4.10;1.00;;;;;;5036898;28;20203;-59
2022/01/28 05:49:23;;;;;;;10.80;2.27;;;4.20;1.00;;;;;;5029143;28;20299;-60
2022/01/28 05:51:51;;;;;;;8.63;1.63;;;4.00;1.00;;;;;;5031808;28;20230;-59
2022/01/28 05:54:17;;;;;;;15.53;2.10;;;4.00;1.00;;;;;;5030998;28;20203;-59
2022/01/28 05:56:44;;;;;;;9.63;2.60;;;4.00;1.00;;;;;;5031031;28;20207;-60
2022/01/28 05:59:10;;;;;;;9.30;2.00;;;4.00;1.00;;;;;;5031258;28;20269;-60
2022/01/28 06:01:37;;;;;;;9.93;2.00;;;4.00;1.00;;;;;;5031227;28;20288;-60
2022/01/28 06:04:04;;;;;;;10.77;2.13;;;4.00;1.00;;;;;;5031407;28;20230;-59
2022/01/28 06:06:32;;;;;;;11.97;1.97;;;4.00;1.00;;;;;;5031288;28;20214;-56
2022/01/28 06:09:00;;;;;;;11.97;2.33;;;4.10;1.00;;;;;;5031618;28;20208;-58
2022/01/28 06:11:27;;;;;;;8.97;1.60;;;4.10;1.00;;;;;;5030910;28;20259;-59
2022/01/28 06:13:54;;;;;;;8.83;2.13;;;4.10;1.00;;;;;;5031545;28;20253;-57
2022/01/28 06:16:20;;;;;;;10.07;2.00;;;4.10;1.00;;;;;;5031048;28;20233;-61
2022/01/28 06:18:47;;;;;;;9.63;1.97;;;4.10;1.00;;;;;;5030751;28;20668;-59
2022/01/28 06:21:14;;;;;;;10.27;2.13;;;4.10;1.00;;;;;;5031476;28;20785;-58
2022/01/28 06:23:41;;;;;;;10.83;2.33;;;4.10;1.00;;;;;;5030853;28;20791;-57
2022/01/28 06:26:09;;;;;;;12.73;2.23;;;4.00;1.00;;;;;;5030940;28;20270;-60
2022/01/28 06:28:35;;;;;;;8.53;1.70;;;4.00;1.00;;;;;;5031005;28;20212;-59
2022/01/28 06:31:03;;;;;;;7.03;2.27;;;4.00;1.00;;;;;;5031365;28;20282;-59
2022/01/28 06:33:29;;;;;;;19.90;2.80;;;4.00;1.00;;;;;;5033128;28;20217;-57
2022/01/28 06:35:56;;;;;;;10.00;2.00;;;3.90;1.00;;;;;;5035359;28;20662;-59
2022/01/28 06:38:23;;;;;;;9.70;2.07;;;3.90;1.00;;;;;;5034529;28;20203;-60
2022/01/28 06:40:50;;;;;;;11.90;2.40;;;4.00;1.00;;;;;;5034698;28;20658;-60
2022/01/28 06:43:18;;;;;;;11.13;2.00;;;4.00;1.00;;;;;;5047585;28;20206;-62
2022/01/28 06:45:44;;;;;;;11.13;2.93;;;4.00;1.00;;;;;;5054928;28;20206;-61
2022/01/28 06:48:11;;;;;;;10.73;2.20;;;3.90;1.00;;;;;;5054416;28;20666;-59
2022/01/28 06:50:38;;;;;;;13.47;3.10;;;4.00;1.00;;;;;;5054966;28;20215;-59
2022/01/28 06:53:05;;;;;;;7.97;2.13;;;3.90;1.00;;;;;;5054827;28;20214;-62
2022/01/28 06:55:31;;;;;;;7.50;1.97;;;3.90;1.00;;;;;;5055018;28;20201;-63
2022/01/28 06:57:58;;;;;;;8.47;1.83;;;3.80;1.00;;;;;;5054474;28;20696;-63
2022/01/28 07:00:26;;;;;;;13.43;2.57;;;3.80;1.00;;;;;;5054712;28;20289;-63
2022/01/28 07:02:52;;;;;;;9.43;1.83;;;3.80;1.00;;;;;;5054181;28;20280;-64
2022/01/28 07:05:19;;;;;;;9.03;2.27;;;3.80;1.00;;;;;;5054341;28;20230;-63
2022/01/28 07:07:47;;;;;;;12.60;2.13;;;3.90;1.00;;;;;;5053982;28;20280;-63
2022/01/28 07:10:14;;;;;;;9.83;2.47;;;3.80;1.00;;;;;;5054809;28;20289;-63
2022/01/28 07:12:40;;;;;;;7.47;2.13;;;3.80;1.00;;;;;;5054037;28;20779;-63
2022/01/28 07:15:08;;;;;;;14.57;2.53;;;3.80;1.00;;;;;;5054394;28;20206;-62
2022/01/28 07:17:36;;;;;;;9.47;2.33;;;3.70;1.00;;;;;;5054029;28;20268;-63
2022/01/28 07:20:04;;;;;;;13.17;2.63;;;3.70;1.00;;;;;;5053983;28;20832;-62
2022/01/28 07:22:30;;;;;;;8.57;2.30;;;3.70;1.00;;;;;;5054723;28;20773;-62
2022/01/28 07:24:57;;;;;;;9.60;2.40;;;3.50;1.00;;;;;;5054059;28;20713;-65
2022/01/28 07:27:24;;;;;;;10.23;2.33;;;3.40;1.00;;;;;;5056124;28;20533;-64
2022/01/28 07:29:51;;;;;;;13.73;2.30;;;3.40;8.80;;;;;;5057257;28;20943;-64
2022/01/28 07:32:17;;;;;;;7.80;2.10;;;3.40;9.40;;;;;;5054509;28;20468;-63
2022/01/28 07:34:46;;;;;;;9.33;2.27;;;3.50;11.00;;;;;;5053654;28;20449;-62
2022/01/28 07:37:13;;;;;;;11.10;2.43;;;3.50;13.30;;;;;;5054076;28;20249;-64
2022/01/28 07:39:39;;;;;;;12.50;2.60;;;3.60;14.00;;;;;;5059181;28;20806;-65
2022/01/28 07:42:07;;;;;;;12.30;2.70;;;3.60;13.60;;;;;;5060251;28;20617;-65
2022/01/28 07:44:34;;;;;;;12.57;2.80;;;3.70;12.90;;;;;;5053711;28;20593;-65
2022/01/28 07:47:01;;;;;;;13.37;2.50;;;3.70;9.50;;;;;;5033191;28;20274;-63
2022/01/28 07:49:27;;;;;;;10.83;2.67;;;3.70;11.60;;;;;;5033321;28;20214;-63
2022/01/28 07:51:55;;;;;;;14.40;2.30;;;3.70;12.00;;;;;;5033435;28;20227;-64
2022/01/28 07:54:22;;;;;;;13.03;2.40;;;3.80;8.80;;;;;;5033745;28;20202;-62
2022/01/28 07:56:52;;;;;;;11.60;2.33;;;3.80;6.80;;;;;;5033649;28;20232;-63
2022/01/28 07:59:19;;;;;;;12.40;2.80;;;3.90;1.60;;;;;;5033191;28;20254;-62
2022/01/28 08:01:46;;;;;;;14.47;2.77;;;3.90;1.00;;;;;;5033141;28;20231;-62
2022/01/28 08:04:12;;;;;;;12.00;2.80;;;3.90;1.00;;;;;;5032991;28;20258;-67
2022/01/28 08:06:40;;;;;;;9.10;2.77;;;3.90;1.00;;;;;;5033290;28;20207;-66
2022/01/28 08:09:08;;;;;;;11.20;2.50;;;3.90;1.00;;;;;;5033294;28;20211;-66
2022/01/28 08:11:35;;;;;;;12.67;3.33;;;3.80;1.00;;;;;;5033029;28;20698;-67
2022/01/28 08:14:02;;;;;;;14.87;3.37;;;3.90;1.00;;;;;;5033455;28;20266;-63
2022/01/28 08:16:29;;;;;;;11.03;2.70;;;4.00;1.00;;;;;;5033430;28;20214;-61
2022/01/28 08:18:56;;;;;;;10.70;2.60;;;4.00;1.00;;;;;;5033590;28;20209;-63
2022/01/28 08:21:22;;;;;;;11.97;2.23;;;4.00;1.00;;;;;;5037901;28;20282;-63
2022/01/28 08:23:49;;;;;;;13.23;2.37;;;4.10;1.00;;;;;;5045939;28;20274;-64
2022/01/28 08:26:18;;;;;;;9.53;2.67;;;4.10;1.00;;;;;;5043461;28;20753;-62
2022/01/28 08:28:47;;;;;;;6.67;1.97;;;4.20;1.00;;;;;;5032631;28;20212;-63
2022/01/28 08:31:14;;;;;;;12.40;2.33;;;4.20;1.00;;;;;;5033406;28;20231;-66
2022/01/28 08:33:41;;;;;;;9.57;2.73;;;4.20;1.00;;;;;;5032968;28;20219;-63
2022/01/28 08:36:08;;;;;;;14.03;2.70;;;4.30;1.00;;;;;;5033088;28;20588;-63
2022/01/28 08:38:38;;;;;;;7.50;2.43;;;4.40;1.00;;;;;;5034494;28;20209;-63
2022/01/28 08:41:05;;;;;;;11.30;3.07;;;4.40;1.00;;;;;;5037010;28;20266;-64
2022/01/28 08:43:33;;;;;;;11.70;2.53;;;4.50;1.00;;;;;;5032961;28;20268;-64
2022/01/28 08:46:00;;;;;;;14.43;2.33;;;4.50;1.00;;;;;;5032754;28;20279;-63
2022/01/28 08:48:26;;;;;;;15.37;2.57;;;4.60;1.00;;;;;;5034180;28;20262;-65
2022/01/28 08:50:53;;;;;;;12.13;2.50;;;4.60;1.00;;;;;;5033656;28;20740;-63
2022/01/28 08:53:20;;;;;;;8.23;2.17;;;4.70;1.00;;;;;;5033308;28;20211;-63
2022/01/28 08:55:47;;;;;;;11.57;2.97;;;4.70;1.00;;;;;;5032250;28;20236;-63
2022/01/28 08:58:13;;;;;;;12.87;2.47;;;4.80;1.00;;;;;;5032430;28;20620;-63
2022/01/28 09:00:45;;;;;;;10.57;2.70;;;4.80;1.00;;;;;;5032903;28;20279;-65
2022/01/28 09:03:12;;;;;;;11.80;2.87;;;4.80;1.00;;;;;;5032935;28;20297;-63
2022/01/28 09:05:39;;;;;;;17.33;3.03;;;4.80;1.00;;;;;;5032739;28;20225;-64
2022/01/28 09:08:08;;;;;;;13.57;2.63;;;4.80;1.00;;;;;;5032474;28;20211;-64
2022/01/28 09:10:37;;;;;;;10.67;2.20;;;4.80;1.00;;;;;;5032099;28;20715;-64
2022/01/28 09:13:24;;;;;;;13.17;2.90;;;4.70;1.00;;;;;;5032151;28;20245;-62
2022/01/28 09:15:55;;;;;;;14.67;2.97;;;4.80;1.00;;;;;;5032374;28;20206;-66
2022/01/28 09:18:22;;;;;;;9.70;2.27;;;4.80;1.00;;;;;;5031542;28;20228;-67
2022/01/28 09:20:49;;;;;;;7.17;2.17;;;4.90;1.00;;;;;;5031962;28;20242;-66
2022/01/28 09:23:16;;;;;;;13.90;2.93;;;5.00;1.00;;;;;;5031748;28;20810;-66
2022/01/28 09:25:44;;;;;;;15.57;2.97;;;5.10;1.00;;;;;;5032036;28;20230;-66
2022/01/28 09:28:11;;;;;;;12.37;2.57;;;5.20;1.00;;;;;;5031766;28;20664;-62
2022/01/28 09:30:37;;;;;;;14.17;2.57;;;5.30;1.00;;;;;;5032224;28;20252;-63
2022/01/28 09:33:06;;;;;;;15.70;3.23;;;5.30;1.00;;;;;;5031908;28;20256;-63
2022/01/28 09:35:34;;;;;;;11.73;2.47;;;5.30;1.00;;;;;;5031840;28;20261;-62
2022/01/28 09:38:01;;;;;;;11.70;2.60;;;5.40;1.00;;;;;;5034218;28;20206;-64
2022/01/28 09:40:28;;;;;;;10.87;3.00;;;5.40;1.00;;;;;;5034454;28;20208;-62
2022/01/28 09:42:55;;;;;;;14.50;2.70;;;5.50;1.00;;;;;;5033130;28;20234;-62
2022/01/28 09:45:24;;;;;;;17.63;3.40;;;5.50;1.00;;;;;;5032921;28;20237;-62
2022/01/28 09:47:53;;;;;;;17.07;3.50;;;5.60;1.00;;;;;;5031723;28;20328;-62
2022/01/28 09:50:23;;;;;;;14.83;2.70;;;5.60;1.00;;;;;;5032068;28;20220;-62
2022/01/28 09:52:50;;;;;;;12.57;2.27;;;5.70;99.90;;;;;;5031881;28;20289;-63
2022/01/28 09:55:17;;;;;;;14.93;3.20;;;5.70;99.90;;;;;;5031891;28;20207;-60
2022/01/28 09:57:45;;;;;;;12.93;2.43;;;5.70;99.90;;;;;;5031640;28;20676;-64
2022/01/28 10:00:13;;;;;;;17.43;2.63;;;5.80;99.90;;;;;;5032245;28;20289;-63
2022/01/28 10:02:55;;;;;;;10.33;2.80;;;5.80;99.90;;;;;;5031259;28;20226;-64
2022/01/28 10:05:26;;;;;;;13.37;3.37;;;5.90;99.90;;;;;;5031817;28;20226;-64
2022/01/28 10:08:11;;;;;;;13.57;2.80;;;6.00;99.90;;;;;;5030886;28;20212;-64
2022/01/28 10:11:02;;;;;;;13.07;3.03;;;6.10;99.90;;;;;;5031653;28;20301;-61
2022/01/28 10:13:34;;;;;;;12.60;2.23;;;6.20;99.90;;;;;;5031798;28;20206;-62
2022/01/28 10:16:08;;;;;;;13.80;3.70;;;6.30;99.90;;;;;;5031487;28;20213;-63
2022/01/28 10:18:49;;;;;;;13.13;2.63;;;6.30;99.90;;;;;;5031641;28;20209;-64
2022/01/28 10:21:30;;;;;;;13.40;2.60;;;6.30;99.90;;;;;;5031597;28;20234;-61
2022/01/28 10:24:04;;;;;;;11.13;2.30;;;6.30;99.90;;;;;;5032106;28;20210;-60
2022/01/28 10:26:34;;;;;;;11.10;2.50;;;6.30;99.90;;;;;;5031217;28;20349;-60
2022/01/28 10:29:02;;;;;;;12.83;2.67;;;6.30;99.90;;;;;;5031670;28;20230;-61
2022/01/28 10:31:36;;;;;;;12.33;2.90;;;6.50;99.90;;;;;;5031303;28;20633;-62
2022/01/28 10:34:11;;;;;;;13.50;2.27;;;6.60;99.90;;;;;;5031542;28;20264;-62
2022/01/28 10:36:39;;;;;;;12.83;2.70;;;6.60;99.90;;;;;;5031364;28;20394;-60
2022/01/28 10:39:14;;;;;;;8.40;3.17;;;6.60;24.40;;;;;;5031262;28;20210;-60
2022/01/28 10:41:49;;;;;;;13.87;2.90;;;6.60;99.90;;;;;;5032193;28;20235;-63
2022/01/28 10:44:16;;;;;;;13.03;2.93;;;6.60;96.80;;;;;;5031555;28;20206;-65
2022/01/28 10:46:52;;;;;;;13.23;2.73;;;6.70;12.40;;;;;;5032241;28;20245;-59
2022/01/28 10:49:18;;;;;;;12.43;2.57;;;6.80;30.00;;;;;;5032532;28;20203;-65
2022/01/28 10:51:49;;;;;;;15.60;2.97;;;6.90;1.00;;;;;;5033168;28;20253;-65
2022/01/28 10:54:17;;;;;;;18.83;3.53;;;6.80;1.00;;;;;;5041832;28;20626;-64
2022/01/28 10:56:49;;;;;;;13.57;2.77;;;6.70;1.00;;;;;;5037619;28;20210;-65
2022/01/28 10:59:18;;;;;;;10.97;2.37;;;6.60;99.90;;;;;;5031600;28;20206;-65
2022/01/28 11:01:45;;;;;;;14.90;2.73;;;6.60;1.00;;;;;;5038927;28;20230;-66
2022/01/28 11:04:13;;;;;;;7.73;2.33;;;6.70;1.00;;;;;;5057169;28;20214;-68
2022/01/28 11:06:41;;;;;;;23.67;3.53;;;6.80;1.00;;;;;;5058892;28;20233;-63
2022/01/28 11:09:11;;;;;;;8.13;2.00;;;6.80;2.60;;;;;;5056157;28;20206;-64
2022/01/28 11:11:39;;;;;;;14.53;2.90;;;6.90;1.00;;;;;;5050497;28;20230;-62
2022/01/28 11:14:06;;;;;;;13.07;2.53;;;6.90;1.00;;;;;;5050834;28;20202;-62
2022/01/28 11:16:33;;;;;;;16.33;2.83;;;6.90;99.90;;;;;;5050673;28;20209;-61
2022/01/28 11:19:01;;;;;;;10.60;3.03;;;6.80;1.00;;;;;;5051256;28;20264;-62
2022/01/28 11:21:35;;;;;;;16.60;2.83;;;6.90;99.90;;;;;;5054036;28;20279;-68
2022/01/28 11:24:09;;;;;;;12.97;2.60;;;6.90;1.00;;;;;;5056414;28;20219;-69
2022/01/28 11:26:49;;;;;;;16.53;3.77;;;7.00;1.00;;;;;;5054671;28;20304;-68
2022/01/28 11:29:20;;;;;;;14.27;2.63;;;7.30;90.80;;;;;;5055495;28;20281;-69
2022/01/28 11:31:48;;;;;;;14.07;2.80;;;7.60;99.90;;;;;;5054965;28;20225;-68
2022/01/28 11:34:22;;;;;;;14.63;2.80;;;7.80;1.00;;;;;;5054998;28;20210;-64
2022/01/28 11:36:50;;;;;;;11.27;3.23;;;7.80;1.00;;;;;;5055134;28;20233;-60
2022/01/28 11:39:22;;;;;;;12.47;2.93;;;7.60;99.90;;;;;;5054466;28;20214;-60
2022/01/28 11:42:09;;;;;;;9.60;2.07;;;7.40;1.00;;;;;;5054940;28;20704;-63
2022/01/28 11:44:52;;;;;;;13.87;2.87;;;7.20;1.00;;;;;;5054734;28;20292;-57
2022/01/28 11:47:24;;;;;;;15.77;2.63;;;7.10;75.50;;;;;;5053482;28;20698;-60
2022/01/28 11:50:00;;;;;;;16.63;2.37;;;7.20;75.60;;;;;;5053711;28;20217;-60
2022/01/28 11:52:29;;;;;;;14.07;2.87;;;7.00;1.00;;;;;;5055312;28;20225;-62
2022/01/28 11:54:56;;;;;;;16.40;2.77;;;7.00;99.90;;;;;;5060058;28;20206;-60
2022/01/28 11:57:27;;;;;;;14.93;2.47;;;7.10;99.90;;;;;;5058330;28;20206;-58
2022/01/28 12:00:22;;;;;;;10.00;1.83;;;7.10;1.00;;;;;;5053703;28;20210;-58
2022/01/28 12:02:50;;;;;;;18.37;3.20;;;6.90;1.00;;;;;;5053112;28;20244;-57
2022/01/28 12:05:47;;;;;;;10.97;2.17;;;6.80;99.90;;;;;;5052976;28;20218;-60
2022/01/28 12:08:16;;;;;;;17.93;3.10;;;6.90;1.00;;;;;;5052511;28;20801;-60
2022/01/28 12:10:45;;;;;;;20.07;3.90;;;7.00;1.00;;;;;;5053155;28;20201;-59
2022/01/28 12:13:16;;;;;;;10.83;1.90;;;7.10;99.90;;;;;;5052828;28;20235;-58
2022/01/28 12:16:11;;;;;;;9.07;2.33;;;7.20;99.90;;;;;;5053011;28;20202;-59
2022/01/28 12:18:53;;;;;;;13.20;2.53;;;7.30;99.90;;;;;;5005908;28;20626;-59
2022/01/28 12:21:22;;;;;;;12.40;2.33;;;7.40;1.00;;;;;;5053240;28;20270;-60
2022/01/28 12:23:51;;;;;;;12.83;2.70;;;7.50;1.00;;;;;;5052861;28;20636;-62
2022/01/28 12:26:20;;;;;;;12.37;2.10;;;7.50;99.90;;;;;;5052557;28;20249;-59
2022/01/28 12:28:55;;;;;;;16.07;2.67;;;7.50;99.90;;;;;;5054618;28;20208;-60
2022/01/28 12:31:30;;;;;;;16.67;2.60;;;7.40;99.90;;;;;;5052445;28;20234;-61
2022/01/28 12:33:59;;;;;;;12.33;2.63;;;7.30;14.00;;;;;;5053700;28;20203;-61
2022/01/28 12:36:29;;;;;;;12.63;2.20;;;7.20;1.00;;;;;;5053963;28;20556;-60
2022/01/28 12:39:20;;;;;;;13.27;2.30;;;7.00;1.00;;;;;;5053429;28;20206;-62
2022/01/28 12:41:55;;;;;;;14.83;2.40;;;6.80;99.90;;;;;;5053348;28;20317;-62
2022/01/28 12:44:24;;;;;;;13.90;2.87;;;6.90;1.00;;;;;;5053514;28;20213;-62
2022/01/28 12:46:59;;;;;;;20.50;2.63;;;6.90;99.90;;;;;;5053759;28;20226;-61
2022/01/28 12:49:27;;;;;;;14.97;2.70;;;7.10;1.00;;;;;;5054318;28;20578;-62
2022/01/28 12:51:57;;;;;;;14.73;2.90;;;7.20;99.90;;;;;;5053159;28;20237;-63
2022/01/28 12:54:31;;;;;;;15.27;2.40;;;7.30;99.90;;;;;;5052601;28;20293;-62
2022/01/28 12:56:58;;;;;;;12.30;2.60;;;7.30;67.70;;;;;;5052448;28;20285;-62
2022/01/28 12:59:26;;;;;;;13.27;2.70;;;7.40;99.90;;;;;;5052457;28;20240;-61
2022/01/28 13:01:53;;;;;;;14.57;2.50;;;7.30;75.70;;;;;;5052211;28;20795;-61
2022/01/28 13:04:23;;;;;;;7.37;2.47;;;7.40;1.00;;;;;;5052047;28;20224;-61
2022/01/28 13:08:24;;;;;;;10.67;2.47;;;7.40;1.00;;;;;;5052511;28;20229;-60
2022/01/28 13:09:50;;;;;;;9.87;3.07;;;7.40;1.00;;;;;;5051687;28;20206;-60
2022/01/28 13:12:22;;;;;;;12.93;3.00;;;7.30;99.90;;;;;;5052361;28;20326;-61
2022/01/28 13:14:51;;;;;;;16.73;3.50;;;7.30;31.60;;;;;;5051989;28;20278;-60
2022/01/28 13:17:22;;;;;;;14.60;3.40;;;7.30;75.80;;;;;;5051453;28;20289;-62
2022/01/28 13:19:56;;;;;;;10.13;3.00;;;7.20;1.00;;;;;;5051736;28;20610;-64
2022/01/28 13:22:27;;;;;;;16.20;3.00;;;7.20;99.90;;;;;;5051328;28;20233;-61
2022/01/28 13:24:56;;;;;;;12.10;3.03;;;7.10;99.90;;;;;;5052046;28;20214;-61
2022/01/28 13:27:37;;;;;;;13.17;3.37;;;7.10;99.90;;;;;;5051354;28;20307;-57
2022/01/28 13:30:13;;;;;;;23.77;3.73;;;7.10;1.00;;;;;;5051777;28;20228;-60
2022/01/28 13:32:41;;;;;;;13.23;3.73;;;7.00;94.90;;;;;;5051762;28;20230;-61
2022/01/28 13:35:12;;;;;;;18.30;3.40;;;7.00;19.10;;;;;;5051439;28;20226;-62
2022/01/28 13:37:41;;;;;;;19.27;3.50;;;7.00;47.00;;;;;;5050675;28;20210;-61
2022/01/28 13:40:10;;;;;;;15.70;3.03;;;6.90;20.30;;;;;;5031311;28;20732;-58
2022/01/28 13:42:37;;;;;;;17.07;3.50;;;6.70;99.90;;;;;;5031950;28;20229;-68
2022/01/28 13:45:07;;;;;;;16.63;3.43;;;6.90;1.00;;;;;;5031713;28;20203;-66
2022/01/28 13:47:54;;;;;;;10.00;2.63;;;7.20;1.00;;;;;;5030512;28;20226;-67
2022/01/28 13:50:31;;;;;;;6.90;2.33;;;7.60;99.90;;;;;;5030977;28;20250;-64
2022/01/28 13:53:20;;;;;;;11.00;2.70;;;7.40;99.90;;;;;;5031596;28;20230;-63
2022/01/28 13:55:48;;;;;;;13.13;2.77;;;7.30;99.90;;;;;;5031121;28;20210;-63
2022/01/28 13:58:14;;;;;;;15.50;3.00;;;7.00;99.90;;;;;;5031175;28;20215;-61
2022/01/28 14:00:44;;;;;;;9.37;2.60;;;7.00;75.30;;;;;;5031750;28;20254;-61
2022/01/28 14:03:19;;;;;;;11.07;3.30;;;7.00;99.90;;;;;;5031921;28;20231;-62
2022/01/28 14:05:50;;;;;;;6.57;3.70;;;7.00;75.40;;;;;;5031725;28;20210;-62
2022/01/28 14:08:34;;;;;;;14.03;4.67;;;6.90;99.90;;;;;;5032146;28;20209;-62